Terminal Aerodrome Forecast
Issued by NWS

Current Version | Previous Version | Text Only | Print | Product List | Glossary On
Versions: 1 2 3 4 5 6 7 8 9 10 11 12 13 14 15 16 17 18 19 20 21 22 23 24 25 26 27 28
000
FTUS45 KGGW 301723
TAFGDV
TAF
KGDV 301723Z 3018/3118 31011KT 6SM FU BKN140
      TEMPO 3018/3021 32015G25KT
     FM310000 VRB06KT 6SM FU SCT150
     FM310900 31020KT 6SM FU SCT060
      AMD LTD TO CLD VIS AND WIND=

USA.gov is the U.S. government's official web portal to all federal, state and local government web resources and services.